Time;durP1;ratioP1;P1;durP2;ratioP2;P2;SDS_P1;SDS_P2;PMS_P1;PMS_P2;Temp;Humidity;BMP_temperature;BMP_pressure;BME280_temperature;BME280_humidity;BME280_pressure;Samples;Min_cycle;Max_cycle;Signal;HPM_P1;HPM_P2
2023/06/20 00:02:14;;;;;;;22.30;13.93;;;17.40;99.90;;;;;;6274215;22;20370;-75
2023/06/20 00:04:40;;;;;;;15.65;12.02;;;17.30;99.90;;;;;;6249606;22;20008;-74
2023/06/20 00:07:05;;;;;;;16.15;13.18;;;17.30;99.90;;;;;;6249466;22;20166;-74
2023/06/20 00:09:31;;;;;;;18.50;13.10;;;17.30;99.90;;;;;;6274654;22;20020;-74
2023/06/20 00:11:57;;;;;;;16.20;12.15;;;17.30;99.90;;;;;;6274552;22;20090;-74
2023/06/20 00:14:23;;;;;;;17.85;13.73;;;17.30;99.90;;;;;;6275051;22;20079;-74
2023/06/20 00:16:48;;;;;;;17.55;12.27;;;17.30;99.90;;;;;;6248127;22;20453;-75
2023/06/20 00:19:14;;;;;;;18.33;12.20;;;17.30;99.90;;;;;;6249172;22;20014;-73
2023/06/20 00:21:40;;;;;;;18.15;12.77;;;17.30;99.90;;;;;;6247381;22;20016;-75
2023/06/20 00:24:09;;;;;;;19.25;13.35;;;17.30;99.90;;;;;;6274212;22;20349;-75
2023/06/20 00:26:38;;;;;;;17.73;12.65;;;17.30;99.90;;;;;;6274089;22;20015;-74
2023/06/20 00:29:04;;;;;;;18.85;11.90;;;17.30;99.90;;;;;;6249316;22;20008;-74
2023/06/20 00:31:30;;;;;;;14.80;10.88;;;17.20;99.90;;;;;;6249325;22;20018;-74
2023/06/20 00:33:55;;;;;;;14.93;10.85;;;17.10;99.90;;;;;;6248632;22;20443;-74
2023/06/20 00:36:25;;;;;;;13.55;9.90;;;17.20;99.90;;;;;;6248590;22;20063;-74
2023/06/20 00:38:52;;;;;;;14.48;9.75;;;17.20;99.90;;;;;;6274989;22;20454;-74
2023/06/20 00:41:20;;;;;;;13.82;10.18;;;17.20;99.90;;;;;;6248877;22;20446;-74
2023/06/20 00:43:49;;;;;;;15.32;10.32;;;17.20;99.90;;;;;;6248768;22;20070;-74
2023/06/20 00:46:22;;;;;;;16.73;10.48;;;17.20;99.90;;;;;;6273896;22;20066;-74
2023/06/20 00:48:48;;;;;;;18.17;11.23;;;17.20;99.90;;;;;;6249385;22;20043;-74
2023/06/20 00:51:15;;;;;;;15.63;10.27;;;17.20;99.90;;;;;;6274853;22;20058;-74
2023/06/20 00:53:42;;;;;;;14.68;10.27;;;17.20;99.90;;;;;;6248638;22;20011;-74
2023/06/20 00:56:10;;;;;;;13.52;10.30;;;17.10;99.90;;;;;;6248927;22;20007;-74
2023/06/20 00:58:36;;;;;;;15.05;11.20;;;17.20;99.90;;;;;;6249236;22;20008;-74
2023/06/20 01:01:02;;;;;;;15.68;10.82;;;17.20;99.90;;;;;;6274823;22;20065;-74
2023/06/20 01:03:28;;;;;;;15.85;10.93;;;17.10;99.90;;;;;;6272535;22;20012;-74
2023/06/20 01:06:09;;;;;;;15.02;10.65;;;17.10;99.90;;;;;;6248270;22;20020;-73
2023/06/20 01:09:13;;;;;;;16.67;11.25;;;17.10;99.90;;;;;;6271433;22;20476;-74
2023/06/20 01:12:03;;;;;;;16.23;10.85;;;17.10;99.90;;;;;;6248507;22;20012;-75
2023/06/20 01:14:48;;;;;;;18.63;11.32;;;17.10;99.90;;;;;;6273911;22;20014;-74
2023/06/20 01:17:39;;;;;;;14.73;10.90;;;17.10;99.90;;;;;;6273106;22;20341;-74
2023/06/20 01:20:13;;;;;;;17.38;10.48;;;17.10;99.90;;;;;;6270265;22;20061;-73
2023/06/20 01:23:05;;;;;;;16.83;12.23;;;17.10;99.90;;;;;;6266727;22;20023;-74
2023/06/20 01:25:55;;;;;;;16.67;11.10;;;17.10;99.90;;;;;;6266908;22;20043;-74
2023/06/20 01:28:46;;;;;;;14.65;10.82;;;17.20;99.90;;;;;;6271106;22;20016;-74
2023/06/20 01:31:24;;;;;;;14.60;10.60;;;17.10;99.90;;;;;;6241348;22;20055;-74
2023/06/20 01:33:56;;;;;;;14.57;10.27;;;17.10;99.90;;;;;;6242625;22;20016;-74
2023/06/20 01:36:22;;;;;;;13.85;10.25;;;17.10;99.90;;;;;;6273042;22;20073;-74
2023/06/20 01:38:54;;;;;;;15.80;11.15;;;17.20;99.90;;;;;;6249197;22;20015;-74
2023/06/20 01:41:22;;;;;;;19.33;11.82;;;17.20;99.90;;;;;;6242730;22;20016;-74
2023/06/20 01:43:49;;;;;;;16.63;11.60;;;17.20;99.90;;;;;;6242403;22;20012;-74
2023/06/20 01:46:17;;;;;;;18.52;11.35;;;17.20;99.90;;;;;;6242351;22;20098;-74
2023/06/20 01:48:43;;;;;;;15.50;10.88;;;17.30;99.90;;;;;;6243526;22;20015;-75
2023/06/20 01:51:10;;;;;;;14.73;11.02;;;17.20;99.90;;;;;;6243142;22;20100;-74
2023/06/20 01:53:38;;;;;;;17.15;10.75;;;17.30;99.90;;;;;;6268540;22;20079;-74
2023/06/20 01:56:06;;;;;;;16.05;11.52;;;17.30;99.90;;;;;;6269252;22;20710;-75
2023/06/20 01:58:33;;;;;;;15.27;11.70;;;17.30;99.90;;;;;;6243118;22;20346;-74
2023/06/20 02:00:59;;;;;;;16.20;10.80;;;17.30;99.90;;;;;;6242952;22;20019;-74
2023/06/20 02:03:27;;;;;;;16.95;11.07;;;17.30;99.90;;;;;;6271842;22;20011;-74
2023/06/20 02:05:55;;;;;;;13.30;10.77;;;17.20;99.90;;;;;;6272957;22;20015;-74
2023/06/20 02:08:24;;;;;;;14.32;11.68;;;17.20;99.90;;;;;;6250758;22;20027;-74
2023/06/20 02:10:50;;;;;;;17.27;12.25;;;17.30;99.90;;;;;;6272211;22;20019;-74
2023/06/20 02:13:17;;;;;;;15.55;11.32;;;17.20;99.90;;;;;;6243404;22;20041;-74
2023/06/20 02:15:44;;;;;;;18.35;11.88;;;17.30;99.90;;;;;;6269385;22;20014;-74
2023/06/20 02:18:09;;;;;;;16.15;11.57;;;17.20;99.90;;;;;;6245416;22;20077;-74
2023/06/20 02:20:35;;;;;;;18.95;13.23;;;17.30;99.90;;;;;;6276177;22;20007;-74
2023/06/20 02:23:04;;;;;;;18.77;12.73;;;17.20;99.90;;;;;;6275482;22;20082;-74
2023/06/20 02:25:35;;;;;;;17.02;12.88;;;17.30;99.90;;;;;;6273871;22;20015;-74
2023/06/20 02:28:03;;;;;;;16.40;12.40;;;17.20;99.90;;;;;;6275099;22;20078;-74
2023/06/20 02:30:31;;;;;;;17.45;12.18;;;17.20;99.90;;;;;;6273190;22;20008;-75
2023/06/20 02:32:59;;;;;;;16.45;11.60;;;17.20;99.90;;;;;;6243117;22;20521;-74
2023/06/20 02:35:25;;;;;;;16.70;13.00;;;17.20;99.90;;;;;;6269090;22;20019;-74
2023/06/20 02:37:57;;;;;;;19.17;12.75;;;17.30;99.90;;;;;;6275979;22;20009;-74
2023/06/20 02:40:24;;;;;;;16.33;12.93;;;17.30;99.90;;;;;;6274390;22;20003;-74
2023/06/20 02:42:50;;;;;;;17.30;13.25;;;17.30;99.90;;;;;;6244607;22;20041;-75
2023/06/20 02:45:17;;;;;;;18.15;14.32;;;17.30;99.90;;;;;;6241976;22;20047;-74
2023/06/20 02:48:00;;;;;;;19.25;13.88;;;17.30;99.90;;;;;;6243129;22;20015;-74
2023/06/20 02:50:41;;;;;;;18.25;14.00;;;17.30;99.90;;;;;;6241949;22;20051;-74
2023/06/20 02:53:29;;;;;;;16.17;13.82;;;17.30;99.90;;;;;;6243340;22;20358;-74
2023/06/20 02:56:01;;;;;;;19.17;14.50;;;17.20;99.90;;;;;;6267588;22;20016;-74
2023/06/20 02:58:29;;;;;;;20.02;14.15;;;17.20;99.90;;;;;;6246063;22;20081;-74
2023/06/20 03:00:58;;;;;;;17.60;12.38;;;17.20;99.90;;;;;;6267842;22;20066;-74
2023/06/20 03:03:35;;;;;;;20.98;15.80;;;17.20;99.90;;;;;;6247323;22;20023;-74
2023/06/20 03:06:02;;;;;;;18.40;14.73;;;17.20;99.90;;;;;;6244363;22;20094;-74
2023/06/20 03:08:30;;;;;;;19.45;15.35;;;17.10;99.90;;;;;;6249443;22;20016;-74
2023/06/20 03:11:00;;;;;;;18.83;14.95;;;17.10;99.90;;;;;;6274293;22;20016;-74
2023/06/20 03:13:27;;;;;;;19.60;15.93;;;17.10;99.90;;;;;;6267639;22;20016;-74
2023/06/20 03:15:54;;;;;;;21.13;16.15;;;17.10;99.90;;;;;;6244915;22;20008;-74
2023/06/20 03:18:20;;;;;;;19.63;15.52;;;17.00;99.90;;;;;;6274406;22;20480;-74
2023/06/20 03:20:48;;;;;;;21.08;16.80;;;17.00;99.90;;;;;;6248636;22;20020;-74
2023/06/20 03:23:14;;;;;;;22.17;16.50;;;17.00;99.90;;;;;;6250269;22;20012;-74
2023/06/20 03:25:39;;;;;;;20.63;16.13;;;17.00;99.90;;;;;;6248940;22;20063;-74
2023/06/20 03:28:05;;;;;;;20.90;16.05;;;17.00;99.90;;;;;;6248991;22;20012;-74
2023/06/20 03:30:31;;;;;;;18.40;16.08;;;17.00;99.90;;;;;;6243062;22;20034;-74
2023/06/20 03:32:56;;;;;;;20.77;16.63;;;17.00;99.90;;;;;;6267745;22;20077;-74
2023/06/20 03:35:22;;;;;;;21.92;17.27;;;17.00;99.90;;;;;;6267356;22;20012;-74
2023/06/20 03:37:47;;;;;;;22.60;16.75;;;16.90;99.90;;;;;;6247624;22;20008;-74
2023/06/20 03:40:13;;;;;;;20.52;17.30;;;17.00;99.90;;;;;;6275357;22;20012;-74
2023/06/20 03:42:38;;;;;;;20.48;17.50;;;17.00;99.90;;;;;;6269285;22;20023;-74
2023/06/20 03:45:05;;;;;;;22.42;17.00;;;17.00;99.90;;;;;;6267961;22;20436;-74
2023/06/20 03:47:30;;;;;;;23.70;17.73;;;16.90;99.90;;;;;;6267591;22;20015;-74
2023/06/20 03:49:56;;;;;;;23.38;18.20;;;16.90;99.90;;;;;;6268260;22;20358;-74
2023/06/20 03:52:21;;;;;;;20.45;16.67;;;16.90;99.90;;;;;;6267912;22;20023;-74
2023/06/20 03:54:47;;;;;;;22.92;17.80;;;16.80;99.90;;;;;;6242250;22;20572;-74
2023/06/20 03:57:12;;;;;;;22.58;17.42;;;16.90;99.90;;;;;;6242039;22;20026;-74
2023/06/20 03:59:38;;;;;;;20.63;17.27;;;16.90;99.90;;;;;;6242758;22;20037;-74
2023/06/20 04:02:04;;;;;;;21.40;17.55;;;17.00;99.90;;;;;;6244346;22;20016;-74
2023/06/20 04:04:29;;;;;;;24.40;17.88;;;17.00;99.90;;;;;;6268891;22;20015;-74
2023/06/20 04:06:55;;;;;;;24.17;18.63;;;17.00;99.90;;;;;;6245377;22;20012;-75
2023/06/20 04:09:25;;;;;;;21.63;17.77;;;17.10;99.90;;;;;;6248585;22;20349;-74
2023/06/20 04:11:51;;;;;;;23.95;18.60;;;17.00;99.90;;;;;;6248384;22;20446;-75
2023/06/20 04:14:16;;;;;;;23.17;18.40;;;17.10;99.90;;;;;;6241920;22;20064;-74
2023/06/20 04:16:42;;;;;;;21.77;18.30;;;17.10;99.90;;;;;;6268827;22;20082;-74
2023/06/20 04:19:08;;;;;;;21.95;18.42;;;17.10;99.90;;;;;;6249540;22;20030;-75
2023/06/20 04:21:33;;;;;;;21.30;17.20;;;17.10;99.90;;;;;;6248270;22;20394;-74
2023/06/20 04:23:59;;;;;;;24.67;18.42;;;17.00;99.90;;;;;;6275027;22;20012;-74
2023/06/20 04:26:25;;;;;;;22.65;18.63;;;17.10;99.90;;;;;;6274298;22;20087;-74
2023/06/20 04:28:50;;;;;;;22.13;18.25;;;17.00;99.90;;;;;;6275083;22;20011;-74
2023/06/20 04:31:16;;;;;;;23.42;18.30;;;17.10;99.90;;;;;;6248741;22;20043;-74
2023/06/20 04:33:43;;;;;;;23.90;17.80;;;17.10;99.90;;;;;;6274913;22;20015;-74
2023/06/20 04:36:13;;;;;;;25.13;20.17;;;17.10;99.90;;;;;;6248523;22;20008;-74
2023/06/20 04:38:44;;;;;;;24.30;19.25;;;17.10;99.90;;;;;;6248774;22;20008;-74
2023/06/20 04:41:10;;;;;;;21.83;17.60;;;17.20;99.90;;;;;;6248826;22;20016;-74
2023/06/20 04:43:37;;;;;;;22.83;18.88;;;17.10;99.90;;;;;;6274341;22;20012;-74
2023/06/20 04:46:06;;;;;;;23.50;18.05;;;17.20;99.90;;;;;;6274953;22;20007;-74
2023/06/20 04:48:35;;;;;;;21.20;18.38;;;17.20;99.90;;;;;;6273689;22;20023;-74
2023/06/20 04:51:02;;;;;;;22.52;18.05;;;17.20;99.90;;;;;;6249193;22;20023;-74
2023/06/20 04:53:28;;;;;;;21.02;17.52;;;17.20;99.90;;;;;;6273585;22;20004;-74
2023/06/20 04:55:54;;;;;;;20.38;16.35;;;17.30;99.90;;;;;;6248812;22;20011;-74
2023/06/20 04:58:20;;;;;;;22.67;17.83;;;17.40;99.90;;;;;;6224498;22;20012;-74
2023/06/20 05:00:46;;;;;;;20.15;16.13;;;17.40;99.90;;;;;;6273666;22;20467;-74
2023/06/20 05:03:12;;;;;;;22.42;17.80;;;17.50;99.90;;;;;;6249292;22;20319;-74
2023/06/20 05:05:40;;;;;;;24.13;17.42;;;17.50;99.90;;;;;;6248389;22;20004;-74
2023/06/20 05:08:05;;;;;;;22.98;18.02;;;17.40;99.90;;;;;;6274773;22;20319;-74
2023/06/20 05:10:31;;;;;;;24.27;17.48;;;17.60;99.90;;;;;;6248626;22;20015;-74
2023/06/20 05:12:56;;;;;;;23.15;16.95;;;17.60;99.90;;;;;;6274222;22;20152;-75
2023/06/20 05:15:25;;;;;;;20.80;16.92;;;17.60;99.90;;;;;;6273951;22;20279;-74
2023/06/20 05:17:53;;;;;;;23.67;17.77;;;17.60;99.90;;;;;;6273919;22;20014;-74
2023/06/20 05:20:19;;;;;;;20.70;17.17;;;17.60;99.90;;;;;;6247172;22;20008;-74
2023/06/20 05:22:45;;;;;;;20.80;17.08;;;17.70;99.90;;;;;;6243568;22;20496;-74
2023/06/20 05:25:11;;;;;;;20.45;16.15;;;17.80;99.90;;;;;;6269029;22;20016;-74
2023/06/20 05:27:37;;;;;;;21.38;16.33;;;17.80;99.90;;;;;;6269717;22;20049;-74
2023/06/20 05:30:04;;;;;;;23.65;16.15;;;17.80;99.90;;;;;;6244004;22;20050;-75
2023/06/20 05:32:30;;;;;;;23.10;16.67;;;17.80;99.90;;;;;;6244361;22;20019;-74
2023/06/20 05:34:56;;;;;;;22.20;16.63;;;17.90;99.90;;;;;;6244146;22;20389;-75
2023/06/20 05:37:21;;;;;;;23.60;17.58;;;17.90;99.90;;;;;;6243613;22;20015;-75
2023/06/20 05:39:47;;;;;;;19.95;15.55;;;18.00;99.90;;;;;;6250480;22;20345;-75
2023/06/20 05:42:13;;;;;;;20.50;16.00;;;18.00;99.90;;;;;;6249266;22;20008;-74
2023/06/20 05:44:38;;;;;;;18.83;16.02;;;18.00;99.90;;;;;;6275895;22;20024;-74
2023/06/20 05:47:04;;;;;;;21.45;15.43;;;18.10;99.90;;;;;;6276402;22;20018;-74
2023/06/20 05:49:30;;;;;;;18.88;15.30;;;18.10;99.90;;;;;;6250963;22;20016;-74
2023/06/20 05:51:57;;;;;;;19.27;13.43;;;18.10;99.90;;;;;;6275911;22;20019;-74
2023/06/20 05:54:23;;;;;;;19.52;15.55;;;18.20;99.90;;;;;;6250926;22;20012;-74
2023/06/20 05:56:49;;;;;;;18.95;16.20;;;18.30;99.90;;;;;;6276444;22;20014;-75
2023/06/20 05:59:15;;;;;;;19.45;14.90;;;18.30;99.90;;;;;;6250897;22;20012;-75
2023/06/20 06:01:41;;;;;;;19.23;14.50;;;18.40;99.90;;;;;;6274883;22;20065;-74
2023/06/20 06:04:07;;;;;;;15.98;14.15;;;18.40;99.90;;;;;;6275490;22;20015;-75
2023/06/20 06:06:33;;;;;;;18.27;14.50;;;18.50;99.90;;;;;;6249995;22;20388;-74
2023/06/20 06:08:58;;;;;;;18.55;15.32;;;18.50;99.90;;;;;;6248794;22;20051;-75
2023/06/20 06:11:25;;;;;;;18.05;13.68;;;18.60;99.90;;;;;;6250190;22;20063;-75
2023/06/20 06:13:51;;;;;;;17.00;14.27;;;18.60;99.90;;;;;;6274583;22;20018;-75
2023/06/20 06:16:20;;;;;;;16.33;13.00;;;18.70;99.90;;;;;;6250610;22;20007;-75
2023/06/20 06:18:45;;;;;;;18.67;14.13;;;18.70;99.90;;;;;;6250667;22;20014;-75
2023/06/20 06:21:11;;;;;;;17.75;13.60;;;18.80;99.90;;;;;;6276253;22;20091;-75
2023/06/20 06:23:37;;;;;;;19.30;13.77;;;18.80;99.90;;;;;;6250646;22;20015;-74
2023/06/20 06:26:04;;;;;;;16.20;12.73;;;18.90;99.90;;;;;;6276156;22;20018;-74
2023/06/20 06:28:30;;;;;;;16.83;12.45;;;19.00;99.90;;;;;;6250518;22;20047;-75
2023/06/20 06:31:09;;;;;;;16.98;12.38;;;19.10;99.90;;;;;;6250599;22;20011;-75
2023/06/20 06:33:35;;;;;;;15.07;11.52;;;19.20;99.90;;;;;;6275451;22;20446;-75
2023/06/20 06:36:00;;;;;;;16.50;12.98;;;19.20;99.90;;;;;;6276082;22;20014;-74
2023/06/20 06:38:26;;;;;;;16.23;13.13;;;19.40;99.90;;;;;;6250422;22;20090;-75
2023/06/20 06:40:55;;;;;;;17.42;12.88;;;19.60;99.90;;;;;;6275435;22;20342;-75
2023/06/20 06:43:21;;;;;;;18.67;12.70;;;19.70;99.90;;;;;;6275478;22;20043;-75
2023/06/20 06:45:47;;;;;;;17.48;13.10;;;19.80;99.90;;;;;;6250416;22;20334;-74
2023/06/20 06:48:13;;;;;;;17.67;11.63;;;19.90;99.90;;;;;;6250575;22;20434;-75
2023/06/20 06:50:38;;;;;;;16.15;11.70;;;20.00;99.90;;;;;;6275974;22;20394;-75
2023/06/20 06:53:04;;;;;;;13.25;11.35;;;20.10;99.90;;;;;;6250407;22;20392;-74
2023/06/20 06:55:30;;;;;;;15.43;11.80;;;20.20;99.90;;;;;;6250390;22;20442;-74
2023/06/20 06:57:55;;;;;;;16.00;12.30;;;20.30;99.90;;;;;;6275806;22;20020;-74
2023/06/20 07:00:21;;;;;;;15.82;12.23;;;20.40;99.90;;;;;;6249720;22;20008;-75
2023/06/20 07:02:47;;;;;;;15.73;11.82;;;20.50;99.90;;;;;;6275174;22;20468;-75
2023/06/20 07:05:12;;;;;;;16.25;12.45;;;20.60;99.90;;;;;;6275874;22;20327;-74
2023/06/20 07:07:38;;;;;;;15.23;11.73;;;20.60;99.90;;;;;;6250365;22;20019;-74
2023/06/20 07:10:04;;;;;;;15.48;11.30;;;20.70;99.90;;;;;;6250121;22;20019;-74
2023/06/20 07:12:30;;;;;;;16.40;11.15;;;20.70;99.90;;;;;;6250044;22;20094;-74
2023/06/20 07:14:58;;;;;;;16.58;12.70;;;20.70;99.90;;;;;;6250200;22;20465;-74
2023/06/20 07:17:25;;;;;;;13.77;10.88;;;20.70;99.90;;;;;;6275536;22;20450;-74
2023/06/20 07:19:54;;;;;;;16.30;11.38;;;20.60;99.90;;;;;;6250062;22;20007;-74
2023/06/20 07:22:20;;;;;;;14.93;11.50;;;20.70;99.90;;;;;;6250163;22;20011;-75
2023/06/20 07:24:45;;;;;;;17.33;11.38;;;20.80;99.90;;;;;;6275603;22;20578;-75
2023/06/20 07:27:11;;;;;;;15.30;11.10;;;20.80;99.90;;;;;;6275556;22;20011;-75
2023/06/20 07:29:37;;;;;;;17.20;11.48;;;20.80;99.90;;;;;;6275363;22;20015;-75
2023/06/20 07:32:02;;;;;;;15.98;11.75;;;20.80;99.90;;;;;;6248745;22;20468;-75
2023/06/20 07:34:28;;;;;;;18.52;12.85;;;20.80;99.90;;;;;;6275371;22;20018;-75
2023/06/20 07:36:54;;;;;;;16.02;11.48;;;20.80;99.90;;;;;;6274799;22;20004;-75
2023/06/20 07:39:20;;;;;;;15.88;11.70;;;20.90;99.90;;;;;;6275480;22;20007;-74
2023/06/20 07:41:45;;;;;;;16.98;11.82;;;20.90;99.90;;;;;;6250246;22;20011;-74
2023/06/20 07:44:11;;;;;;;16.48;10.75;;;21.00;99.90;;;;;;6249356;22;20022;-75
2023/06/20 07:46:39;;;;;;;16.20;11.02;;;21.10;99.90;;;;;;6249695;22;20102;-73
2023/06/20 07:49:05;;;;;;;13.77;10.85;;;21.20;99.90;;;;;;6274803;22;20073;-74
2023/06/20 07:51:33;;;;;;;15.75;11.20;;;21.20;99.90;;;;;;6249756;22;20446;-75
2023/06/20 07:53:59;;;;;;;16.75;11.15;;;21.20;99.90;;;;;;6249268;22;20018;-75
2023/06/20 07:56:25;;;;;;;21.13;12.07;;;21.20;99.90;;;;;;6250362;22;20008;-76
2023/06/20 07:58:50;;;;;;;16.73;10.32;;;21.20;99.90;;;;;;6275132;22;20442;-75
2023/06/20 08:01:17;;;;;;;16.33;10.73;;;21.30;99.90;;;;;;6249634;22;20073;-75
2023/06/20 08:03:43;;;;;;;16.25;10.25;;;21.30;99.90;;;;;;6249689;22;20015;-75
2023/06/20 08:06:12;;;;;;;21.08;11.60;;;21.30;99.90;;;;;;6272961;22;20027;-76
2023/06/20 08:08:38;;;;;;;18.70;11.77;;;21.30;99.90;;;;;;6274082;22;20503;-75
2023/06/20 08:11:04;;;;;;;24.88;11.52;;;21.30;99.90;;;;;;6275115;22;20098;-75
2023/06/20 08:13:30;;;;;;;18.42;11.65;;;21.30;99.90;;;;;;6275218;22;20007;-74
2023/06/20 08:15:55;;;;;;;16.55;10.63;;;21.30;99.90;;;;;;6274203;22;20018;-78
2023/06/20 08:18:21;;;;;;;16.45;10.00;;;21.30;99.90;;;;;;6275059;22;20008;-76
2023/06/20 08:20:47;;;;;;;20.23;11.93;;;21.30;99.90;;;;;;6275391;22;20012;-75
2023/06/20 08:23:13;;;;;;;17.17;12.52;;;21.30;99.90;;;;;;6249679;22;20012;-75
2023/06/20 08:25:39;;;;;;;19.90;12.48;;;21.30;99.90;;;;;;6274207;22;20338;-75
2023/06/20 08:28:04;;;;;;;20.45;12.18;;;21.30;99.90;;;;;;6248614;22;20012;-75
2023/06/20 08:30:30;;;;;;;13.45;12.05;;;21.40;99.90;;;;;;6274410;22;20442;-75
2023/06/20 08:32:56;;;;;;;18.75;12.13;;;21.40;99.90;;;;;;6274984;22;20110;-76
2023/06/20 08:35:21;;;;;;;17.42;11.80;;;21.50;99.90;;;;;;6274041;22;20016;-75
2023/06/20 08:37:48;;;;;;;14.07;11.30;;;21.50;99.90;;;;;;6273973;22;20379;-75
2023/06/20 08:40:14;;;;;;;12.40;9.98;;;21.70;99.90;;;;;;6249140;22;20004;-75
2023/06/20 08:42:43;;;;;;;13.07;10.18;;;21.80;99.90;;;;;;6275212;22;20012;-76
2023/06/20 08:45:09;;;;;;;15.52;11.82;;;22.00;99.90;;;;;;6249389;22;20522;-76
2023/06/20 08:47:35;;;;;;;14.80;11.15;;;22.00;99.90;;;;;;6248385;22;20034;-76
2023/06/20 08:50:00;;;;;;;12.68;10.23;;;22.00;99.90;;;;;;6249730;22;20011;-76
2023/06/20 08:52:30;;;;;;;14.10;12.10;;;22.10;99.90;;;;;;6249362;22;20027;-75
2023/06/20 08:54:57;;;;;;;12.40;9.70;;;22.10;99.90;;;;;;6248475;22;20095;-76
2023/06/20 08:57:23;;;;;;;14.98;11.38;;;22.10;99.90;;;;;;6251479;22;20091;-76
2023/06/20 08:59:49;;;;;;;14.95;11.50;;;22.30;99.90;;;;;;6276876;22;20516;-76
2023/06/20 09:02:15;;;;;;;14.57;11.85;;;22.30;99.90;;;;;;6276602;22;20061;-76
2023/06/20 09:04:41;;;;;;;13.80;10.07;;;22.40;99.90;;;;;;6276822;22;20499;-76
2023/06/20 09:07:17;;;;;;;13.73;10.70;;;22.50;99.90;;;;;;6250524;22;20090;-77
2023/06/20 09:09:44;;;;;;;16.17;11.73;;;22.50;99.90;;;;;;6250415;22;20021;-76
2023/06/20 09:12:09;;;;;;;14.18;10.93;;;22.50;99.90;;;;;;6251140;22;20016;-76
2023/06/20 09:14:35;;;;;;;13.15;10.45;;;22.40;99.90;;;;;;6251275;22;20030;-76
2023/06/20 09:17:00;;;;;;;14.23;11.45;;;22.40;99.90;;;;;;6251256;22;20401;-76
2023/06/20 09:19:26;;;;;;;13.55;10.60;;;22.40;99.90;;;;;;6250645;22;20345;-76
2023/06/20 09:22:02;;;;;;;14.07;9.38;;;22.50;99.90;;;;;;6276708;22;20020;-76
2023/06/20 09:24:27;;;;;;;10.55;8.27;;;22.40;99.90;;;;;;6251136;22;20053;-76
2023/06/20 09:26:53;;;;;;;12.52;8.02;;;22.60;99.90;;;;;;6327887;22;20008;-75
2023/06/20 09:29:19;;;;;;;11.13;8.77;;;22.80;99.90;;;;;;6270800;22;20007;-75
2023/06/20 09:31:49;;;;;;;11.90;8.80;;;22.80;99.90;;;;;;6300663;22;20090;-75
2023/06/20 09:34:18;;;;;;;10.77;7.65;;;23.00;99.90;;;;;;6275398;22;20082;-75
2023/06/20 09:36:44;;;;;;;10.88;7.40;;;23.10;99.90;;;;;;6249193;22;20889;-75
2023/06/20 09:39:17;;;;;;;9.65;6.60;;;23.30;99.90;;;;;;6248304;22;20007;-75
2023/06/20 09:41:53;;;;;;;15.60;8.15;;;23.40;99.90;;;;;;6250371;22;20020;-76
2023/06/20 09:44:19;;;;;;;10.02;7.13;;;23.40;99.90;;;;;;6249271;22;20012;-76
2023/06/20 09:46:45;;;;;;;10.27;6.82;;;23.50;99.90;;;;;;6275992;22;20449;-75
2023/06/20 09:49:12;;;;;;;10.00;6.85;;;23.60;99.90;;;;;;6249465;22;20069;-75
2023/06/20 09:51:44;;;;;;;9.52;6.70;;;23.70;99.90;;;;;;6275681;22;20345;-76
2023/06/20 09:54:15;;;;;;;8.85;6.75;;;23.70;99.90;;;;;;6275079;22;20061;-76
2023/06/20 09:56:50;;;;;;;11.10;7.00;;;23.90;99.90;;;;;;6274158;22;20018;-76
2023/06/20 09:59:16;;;;;;;10.27;7.28;;;24.00;99.90;;;;;;6250859;22;20058;-76
2023/06/20 10:01:42;;;;;;;10.50;8.55;;;23.90;99.90;;;;;;6300614;22;20011;-75
2023/06/20 10:04:10;;;;;;;9.15;7.22;;;24.00;99.90;;;;;;6249660;22;20461;-76
2023/06/20 10:06:37;;;;;;;12.77;7.85;;;24.20;99.90;;;;;;6274628;22;20019;-77
2023/06/20 10:09:08;;;;;;;11.18;8.40;;;24.20;99.90;;;;;;6249902;22;20027;-76
2023/06/20 10:11:39;;;;;;;12.07;8.45;;;24.20;99.90;;;;;;6275111;22;20043;-76
2023/06/20 10:14:05;;;;;;;11.55;9.18;;;24.20;99.90;;;;;;6271983;22;20480;-76
2023/06/20 10:16:31;;;;;;;10.70;8.13;;;24.40;99.90;;;;;;6249921;22;20008;-76
2023/06/20 10:18:57;;;;;;;12.65;8.57;;;24.50;99.90;;;;;;6249270;22;20515;-77
2023/06/20 10:22:11;;;;;;;11.63;8.35;;;24.70;99.90;;;;;;6327356;22;20369;-76
2023/06/20 10:24:39;;;;;;;10.45;8.13;;;24.90;99.90;;;;;;6224107;22;20011;-77
2023/06/20 10:27:05;;;;;;;9.63;7.78;;;25.00;99.90;;;;;;6275460;22;20012;-77
2023/06/20 10:29:40;;;;;;;12.73;8.90;;;25.10;99.90;;;;;;6250509;22;20022;-77
2023/06/20 10:32:12;;;;;;;12.52;8.55;;;25.20;99.90;;;;;;6275910;22;20542;-77
2023/06/20 10:34:39;;;;;;;11.65;8.20;;;25.40;99.90;;;;;;6250129;22;20012;-77
2023/06/20 10:37:27;;;;;;;13.20;9.27;;;25.40;99.90;;;;;;6249668;22;20007;-77
2023/06/20 10:39:57;;;;;;;11.88;7.68;;;25.40;99.90;;;;;;6249886;22;20468;-77
2023/06/20 10:42:39;;;;;;;11.43;8.52;;;25.60;99.90;;;;;;6274814;22;20466;-76
2023/06/20 10:45:25;;;;;;;10.98;8.75;;;25.70;99.90;;;;;;6274974;22;20015;-76
2023/06/20 10:47:52;;;;;;;13.88;8.48;;;25.70;99.90;;;;;;6274342;22;20323;-76
2023/06/20 10:50:18;;;;;;;10.10;7.38;;;25.80;99.90;;;;;;6248517;22;20041;-76
2023/06/20 10:52:44;;;;;;;13.10;8.30;;;25.80;99.90;;;;;;6274536;22;20492;-76
2023/06/20 10:55:15;;;;;;;9.27;7.10;;;25.90;99.90;;;;;;6298879;22;20012;-73
2023/06/20 10:57:48;;;;;;;9.60;7.13;;;26.00;99.90;;;;;;6250025;22;20126;-74
2023/06/20 11:00:18;;;;;;;10.00;7.45;;;26.00;99.90;;;;;;6249120;22;20011;-73
2023/06/20 11:02:54;;;;;;;8.82;7.00;;;26.10;99.90;;;;;;6274820;22;20019;-73
2023/06/20 11:05:27;;;;;;;11.35;7.70;;;26.20;99.90;;;;;;6247828;22;20022;-73
2023/06/20 11:07:58;;;;;;;9.43;7.60;;;26.40;99.90;;;;;;6274783;22;20016;-73
2023/06/20 11:10:29;;;;;;;8.82;7.13;;;26.30;99.90;;;;;;6273903;22;20043;-73
2023/06/20 11:12:57;;;;;;;11.93;6.85;;;26.30;99.90;;;;;;6248929;22;20054;-73
2023/06/20 11:15:25;;;;;;;9.32;6.82;;;26.10;99.90;;;;;;6275534;22;20496;-73
2023/06/20 11:17:51;;;;;;;8.50;6.30;;;26.20;99.90;;;;;;6275016;22;20039;-73
2023/06/20 11:20:20;;;;;;;10.30;7.22;;;26.30;99.90;;;;;;6249461;22;20058;-73
2023/06/20 11:22:49;;;;;;;8.82;6.75;;;26.50;99.90;;;;;;6301364;22;20027;-74
2023/06/20 11:25:35;;;;;;;8.85;6.70;;;26.50;99.90;;;;;;6249511;22;20397;-73
2023/06/20 11:28:15;;;;;;;9.02;7.50;;;26.60;99.90;;;;;;6274986;22;20011;-74
2023/06/20 11:30:43;;;;;;;9.05;7.32;;;26.60;99.90;;;;;;6248800;22;20122;-76
2023/06/20 11:33:10;;;;;;;9.98;7.55;;;26.60;99.90;;;;;;6273501;22;20346;-77
2023/06/20 11:35:46;;;;;;;11.80;7.70;;;26.60;99.90;;;;;;6245691;22;20008;-77
2023/06/20 11:38:19;;;;;;;9.93;6.45;;;26.60;99.90;;;;;;6275005;22;20008;-77
2023/06/20 11:40:45;;;;;;;9.55;7.40;;;26.50;99.90;;;;;;6248287;22;20062;-76
2023/06/20 11:43:23;;;;;;;10.57;6.60;;;26.70;99.90;;;;;;6274816;22;20007;-77
2023/06/20 11:45:49;;;;;;;8.30;6.25;;;26.90;99.90;;;;;;6249394;22;20012;-77
2023/06/20 11:48:16;;;;;;;14.52;6.38;;;26.90;99.90;;;;;;6274318;22;20087;-77
2023/06/20 11:50:53;;;;;;;8.10;6.28;;;27.00;99.90;;;;;;6248690;22;20023;-77
2023/06/20 11:53:29;;;;;;;9.05;6.68;;;27.00;99.90;;;;;;6248393;22;20512;-77
2023/06/20 11:56:14;;;;;;;8.73;6.47;;;26.80;99.90;;;;;;6274332;22;20008;-78
2023/06/20 11:58:42;;;;;;;9.90;6.55;;;26.80;99.90;;;;;;6274303;22;20014;-77
2023/06/20 12:01:16;;;;;;;7.40;5.03;;;26.80;99.90;;;;;;6249302;22;20086;-77
2023/06/20 12:03:44;;;;;;;8.65;6.10;;;27.00;99.90;;;;;;6249107;22;20082;-77
2023/06/20 12:06:33;;;;;;;7.22;4.78;;;27.00;99.90;;;;;;6247482;22;20015;-76
2023/06/20 12:09:11;;;;;;;6.90;4.93;;;27.30;99.90;;;;;;6248936;22;20065;-77
2023/06/20 12:11:47;;;;;;;8.20;5.10;;;27.20;99.90;;;;;;6249440;22;20019;-77
2023/06/20 12:14:16;;;;;;;7.85;5.18;;;27.20;99.90;;;;;;6273230;22;20083;-77
2023/06/20 12:16:44;;;;;;;8.95;5.55;;;27.20;99.90;;;;;;6275395;22;20378;-77
2023/06/20 12:19:09;;;;;;;8.90;6.03;;;27.20;99.90;;;;;;6300046;22;20047;-77
2023/06/20 12:21:38;;;;;;;8.30;5.63;;;27.20;99.90;;;;;;6246855;22;20012;-76
2023/06/20 12:24:08;;;;;;;7.57;5.70;;;27.00;99.90;;;;;;6273259;22;20090;-76
2023/06/20 12:26:34;;;;;;;9.63;6.25;;;27.10;99.90;;;;;;6249525;22;20007;-76
2023/06/20 12:28:59;;;;;;;8.70;6.35;;;27.00;99.90;;;;;;6274437;22;20472;-77
2023/06/20 12:31:25;;;;;;;11.20;6.38;;;26.80;99.90;;;;;;6325562;22;20075;-76
2023/06/20 12:33:51;;;;;;;7.97;6.20;;;26.80;99.90;;;;;;6300894;22;20019;-76
2023/06/20 12:36:17;;;;;;;8.55;6.45;;;26.70;99.90;;;;;;6248773;22;20020;-76
2023/06/20 12:38:43;;;;;;;8.55;6.22;;;26.80;99.90;;;;;;6274940;22;20043;-77